createdAt,value
2023-04-25T00:02:00.856Z,11.35
2023-04-25T00:04:28.531Z,16.17
2023-04-25T00:06:55.513Z,17.20
2023-04-25T00:11:48.891Z,14.48
2023-04-25T00:14:17.194Z,11.43
2023-04-25T00:16:45.001Z,17.23
2023-04-25T00:19:11.738Z,17.75
2023-04-25T00:21:46.429Z,14.25
2023-04-25T00:24:13.738Z,17.08
2023-04-25T00:26:40.542Z,17.48
2023-04-25T00:34:01.726Z,12.65
2023-04-25T00:36:28.683Z,17.85
2023-04-25T00:39:00.785Z,14.15
2023-04-25T00:41:29.575Z,14.07
2023-04-25T00:43:59.644Z,13.55
2023-04-25T00:46:30.623Z,17.73
2023-04-25T00:49:24.578Z,14.68
2023-04-25T00:54:20.890Z,15.55
2023-04-25T00:59:14.463Z,12.00
2023-04-25T01:01:42.679Z,15.45
2023-04-25T01:04:09.438Z,16.70
2023-04-25T01:09:04.548Z,11.77
2023-04-25T01:11:31.159Z,14.75
2023-04-25T01:14:00.577Z,14.82
2023-04-25T01:16:28.144Z,13.13
2023-04-25T01:18:55.271Z,17.27
2023-04-25T01:21:21.843Z,12.52
2023-04-25T01:23:48.503Z,14.82
2023-04-25T01:26:16.332Z,16.02
2023-04-25T01:28:43.759Z,15.45
2023-04-25T01:31:12.289Z,13.73
2023-04-25T01:33:39.031Z,14.80
2023-04-25T01:36:05.876Z,17.40
2023-04-25T01:38:36.100Z,17.60
2023-04-25T01:41:02.676Z,19.92
2023-04-25T01:43:29.295Z,12.65
2023-04-25T01:45:56.730Z,19.35
2023-04-25T01:48:23.532Z,17.98
2023-04-25T01:50:50.077Z,18.42
2023-04-25T01:53:16.512Z,17.85
2023-04-25T01:55:44.998Z,14.48
2023-04-25T01:58:17.470Z,14.43
2023-04-25T02:00:57.595Z,13.85
2023-04-25T02:03:27.655Z,15.73
2023-04-25T02:05:55.704Z,13.88
2023-04-25T02:08:22.564Z,18.38
2023-04-25T02:10:49.226Z,16.50
2023-04-25T02:13:18.882Z,18.75
2023-04-25T02:16:14.111Z,16.90
2023-04-25T02:18:40.601Z,16.55
2023-04-25T02:21:07.032Z,12.30
2023-04-25T02:23:33.560Z,11.82
2023-04-25T02:26:00.445Z,17.15
2023-04-25T02:30:53.686Z,10.10
2023-04-25T02:33:21.916Z,22.38
2023-04-25T02:35:48.548Z,11.15
2023-04-25T02:38:15.156Z,19.85
2023-04-25T02:40:41.993Z,16.70
2023-04-25T02:43:09.748Z,12.40
2023-04-25T02:45:36.483Z,12.00
2023-04-25T02:48:03.844Z,22.35
2023-04-25T02:50:32.265Z,19.60
2023-04-25T02:52:59.042Z,19.13
2023-04-25T02:55:30.855Z,17.70
2023-04-25T02:57:59.598Z,15.48
2023-04-25T03:00:37.440Z,19.17
2023-04-25T03:03:04.316Z,16.10
2023-04-25T03:05:31.267Z,17.15
2023-04-25T03:07:57.931Z,18.25
2023-04-25T03:10:24.862Z,17.25
2023-04-25T03:15:19.014Z,15.63
2023-04-25T03:17:46.030Z,11.82
2023-04-25T03:20:12.893Z,15.77
2023-04-25T03:27:32.403Z,11.07
2023-04-25T03:29:58.974Z,19.50
2023-04-25T03:32:25.543Z,13.93
2023-04-25T03:34:52.149Z,12.88
2023-04-25T03:37:18.646Z,15.27
2023-04-25T03:39:45.288Z,17.35
2023-04-25T03:42:11.888Z,15.30
2023-04-25T03:44:38.408Z,18.15
2023-04-25T03:47:04.898Z,15.45
2023-04-25T03:49:32.027Z,19.83
2023-04-25T03:52:01.594Z,20.20
2023-04-25T03:54:33.008Z,14.68
2023-04-25T03:57:05.983Z,15.98
2023-04-25T03:59:35.762Z,13.13
2023-04-25T04:02:03.107Z,14.38
2023-04-25T04:06:56.913Z,16.15
2023-04-25T04:09:31.311Z,10.88
2023-04-25T04:12:00.124Z,12.15
2023-04-25T04:14:27.244Z,11.70
2023-04-25T04:16:55.313Z,18.83
2023-04-25T04:19:22.574Z,14.32
2023-04-25T04:22:18.254Z,14.48
2023-04-25T04:24:47.295Z,10.75
2023-04-25T04:27:21.140Z,16.08
2023-04-25T04:32:53.549Z,12.15
2023-04-25T04:35:20.940Z,13.35
2023-04-25T04:37:48.924Z,15.52
2023-04-25T04:40:17.278Z,13.52
2023-04-25T04:42:50.556Z,10.13
2023-04-25T04:45:39.279Z,11.00
2023-04-25T04:48:23.241Z,13.90
2023-04-25T04:51:08.186Z,12.77
2023-04-25T04:53:53.375Z,13.45
2023-04-25T04:56:41.170Z,11.15
2023-04-25T04:59:22.811Z,14.65
2023-04-25T05:02:18.471Z,13.13
2023-04-25T05:04:47.945Z,8.85
2023-04-25T05:07:36.812Z,10.70
2023-04-25T05:10:17.800Z,14.43
2023-04-25T05:13:04.847Z,7.72
2023-04-25T05:15:57.772Z,10.07
2023-04-25T05:18:49.556Z,11.85
2023-04-25T05:21:44.114Z,17.08
2023-04-25T05:27:13.615Z,12.38
2023-04-25T05:29:58.627Z,9.00
2023-04-25T05:32:36.800Z,10.95
2023-04-25T05:37:39.892Z,12.55
2023-04-25T05:40:14.353Z,9.43
2023-04-25T05:42:47.367Z,7.45
2023-04-25T05:45:29.778Z,11.25
2023-04-25T05:48:09.887Z,11.90
2023-04-25T05:51:02.699Z,12.02
2023-04-25T05:53:52.095Z,14.43
2023-04-25T05:56:19.069Z,10.00
2023-04-25T05:58:48.146Z,7.63
2023-04-25T06:01:15.189Z,9.20
2023-04-25T06:03:44.452Z,9.85
2023-04-25T06:06:17.636Z,7.97
2023-04-25T06:08:44.251Z,8.05
2023-04-25T06:11:11.938Z,14.70
2023-04-25T06:13:38.911Z,9.30
2023-04-25T06:18:32.288Z,9.77
2023-04-25T06:20:59.081Z,11.98
2023-04-25T06:23:26.283Z,6.60
2023-04-25T06:25:58.617Z,11.02
2023-04-25T06:28:26.753Z,9.77
2023-04-25T06:30:53.577Z,11.15
2023-04-25T06:33:21.225Z,6.30
2023-04-25T06:35:47.997Z,8.45
2023-04-25T06:38:17.747Z,8.52
2023-04-25T06:40:48.414Z,7.63
2023-04-25T06:43:15.083Z,8.73
2023-04-25T06:46:05.528Z,12.38
2023-04-25T06:48:35.871Z,8.93
2023-04-25T06:51:02.195Z,11.77
2023-04-25T06:53:28.937Z,10.25
2023-04-25T06:55:59.672Z,9.02
2023-04-25T06:58:32.741Z,9.82
2023-04-25T07:01:09.811Z,11.05
2023-04-25T07:03:38.347Z,13.40
2023-04-25T07:06:09.560Z,6.15
2023-04-25T07:08:36.020Z,9.65
2023-04-25T07:11:02.344Z,7.80
2023-04-25T07:13:28.819Z,7.32
2023-04-25T07:15:57.230Z,10.00
2023-04-25T07:18:24.105Z,7.20
2023-04-25T07:20:51.337Z,8.30
2023-04-25T07:23:18.542Z,7.38
2023-04-25T07:25:45.066Z,7.53
2023-04-25T07:28:12.992Z,4.00
2023-04-25T07:30:39.582Z,8.52
2023-04-25T07:33:05.955Z,8.18
2023-04-25T07:35:33.896Z,9.05
2023-04-25T07:38:00.311Z,9.43
2023-04-25T07:40:26.821Z,8.32
2023-04-25T07:42:58.297Z,8.23
2023-04-25T07:45:33.183Z,6.35
2023-04-25T07:47:59.831Z,7.88
2023-04-25T07:50:26.915Z,7.10
2023-04-25T07:55:27.975Z,6.95
2023-04-25T07:58:02.718Z,10.40
2023-04-25T08:00:31.304Z,7.18
2023-04-25T08:03:17.782Z,6.95
2023-04-25T08:05:44.694Z,7.50
2023-04-25T08:08:12.777Z,9.25
2023-04-25T08:10:39.304Z,9.63
2023-04-25T08:13:05.953Z,10.90
2023-04-25T08:15:32.910Z,10.35
2023-04-25T08:18:00.483Z,8.45
2023-04-25T08:20:27.216Z,7.07
2023-04-25T08:22:59.619Z,10.63
2023-04-25T08:25:46.457Z,10.52
2023-04-25T08:28:16.122Z,7.85
2023-04-25T08:30:43.197Z,5.78
2023-04-25T08:33:13.374Z,10.02
2023-04-25T08:36:03.594Z,6.07
2023-04-25T08:38:32.388Z,5.93
2023-04-25T08:41:00.592Z,6.53
2023-04-25T08:43:27.421Z,10.25
2023-04-25T08:48:33.755Z,7.72
2023-04-25T08:51:01.497Z,5.68
2023-04-25T08:53:29.491Z,4.55
2023-04-25T08:55:59.076Z,4.70
2023-04-25T08:58:25.519Z,5.57
2023-04-25T09:00:52.566Z,4.15
2023-04-25T09:03:21.743Z,3.95
2023-04-25T09:05:48.943Z,5.97
2023-04-25T09:08:15.911Z,8.23
2023-04-25T09:10:42.916Z,8.82
2023-04-25T09:16:06.236Z,6.88
2023-04-25T09:19:00.799Z,7.80
2023-04-25T09:21:28.348Z,7.15
2023-04-25T09:23:54.908Z,7.75
2023-04-25T09:26:21.783Z,4.53
2023-04-25T09:28:49.331Z,5.57
2023-04-25T09:31:22.943Z,7.53
2023-04-25T09:33:51.822Z,6.55
2023-04-25T09:36:19.409Z,7.00
2023-04-25T09:39:00.481Z,10.27
2023-04-25T09:41:33.558Z,4.82
2023-04-25T09:44:02.731Z,4.53
2023-04-25T09:46:37.506Z,6.60
2023-04-25T09:49:07.829Z,5.70
2023-04-25T09:51:41.707Z,6.07
2023-04-25T09:54:09.940Z,8.32
2023-04-25T09:56:49.055Z,5.78
2023-04-25T09:59:15.928Z,7.05
2023-04-25T10:01:43.694Z,4.55
2023-04-25T10:04:23.630Z,6.30
2023-04-25T10:07:00.450Z,6.45
2023-04-25T10:09:31.146Z,5.40
2023-04-25T10:11:57.591Z,8.77
2023-04-25T10:14:24.790Z,8.70
2023-04-25T10:16:54.564Z,5.38
2023-04-25T10:19:21.456Z,6.85
2023-04-25T10:21:51.115Z,7.97
2023-04-25T10:24:17.647Z,6.88
2023-04-25T10:26:44.278Z,5.32
2023-04-25T10:31:46.066Z,5.03
2023-04-25T10:34:12.616Z,5.72
2023-04-25T10:36:39.191Z,5.38
2023-04-25T10:39:10.065Z,6.38
2023-04-25T10:41:46.920Z,5.88
2023-04-25T10:44:14.424Z,6.65
2023-04-25T10:46:41.499Z,7.03
2023-04-25T10:49:09.034Z,5.35
2023-04-25T10:51:54.457Z,3.60
2023-04-25T10:54:23.399Z,4.90
2023-04-25T10:56:50.058Z,5.63
2023-04-25T11:01:45.132Z,4.90
2023-04-25T11:04:26.013Z,5.47
2023-04-25T11:07:07.421Z,12.35
2023-04-25T11:09:35.322Z,11.73
2023-04-25T11:12:01.712Z,3.97
2023-04-25T11:14:28.287Z,6.05
2023-04-25T11:19:22.893Z,7.60
2023-04-25T11:21:49.430Z,5.65
2023-04-25T11:26:42.709Z,6.85
2023-04-25T11:29:09.242Z,7.57
2023-04-25T11:38:55.117Z,4.32
2023-04-25T11:41:23.061Z,5.38
2023-04-25T11:43:49.880Z,3.95
2023-04-25T11:46:16.796Z,6.55
2023-04-25T11:48:43.812Z,6.18
2023-04-25T11:51:10.519Z,8.98
2023-04-25T11:53:37.142Z,5.53
2023-04-25T12:03:32.184Z,6.07
2023-04-25T12:06:04.729Z,6.25
2023-04-25T12:08:31.416Z,6.35
2023-04-25T12:10:57.858Z,5.40
2023-04-25T12:13:25.309Z,3.72
2023-04-25T12:15:52.174Z,7.85
2023-04-25T12:18:22.542Z,5.07
2023-04-25T12:20:49.009Z,6.93
2023-04-25T12:23:15.482Z,9.27
2023-04-25T12:25:42.886Z,5.60
2023-04-25T12:28:24.654Z,3.33
2023-04-25T12:30:53.968Z,4.45
2023-04-25T12:33:20.478Z,3.83
2023-04-25T12:35:46.888Z,4.65
2023-04-25T12:38:21.544Z,5.15
2023-04-25T12:40:47.977Z,4.82
2023-04-25T12:43:14.418Z,3.28
2023-04-25T12:45:41.043Z,5.50
2023-04-25T12:50:34.032Z,4.13
2023-04-25T12:53:00.967Z,5.05
2023-04-25T12:55:27.334Z,8.52
2023-04-25T12:57:53.855Z,3.50
2023-04-25T13:00:21.099Z,3.95
2023-04-25T13:02:50.507Z,4.63
2023-04-25T13:05:17.230Z,4.55
2023-04-25T13:12:36.124Z,3.72
2023-04-25T13:15:02.656Z,4.70
2023-04-25T13:17:29.183Z,4.70
2023-04-25T13:22:22.024Z,5.20
2023-04-25T13:24:48.440Z,3.72
2023-04-25T13:29:41.496Z,5.88
2023-04-25T13:32:08.710Z,6.32
2023-04-25T13:34:35.307Z,7.38
2023-04-25T13:37:01.731Z,6.15
2023-04-25T13:39:28.094Z,2.92
2023-04-25T13:41:54.467Z,5.35
2023-04-25T13:44:20.838Z,4.00
2023-04-25T13:46:47.839Z,5.40
2023-04-25T13:49:14.703Z,3.47
2023-04-25T13:51:41.474Z,4.93
2023-04-25T13:54:08.518Z,6.43
2023-04-25T13:56:35.075Z,5.70
2023-04-25T13:59:01.593Z,6.88
2023-04-25T14:01:29.094Z,7.78
2023-04-25T14:03:55.823Z,5.45
2023-04-25T14:06:24.787Z,7.15
2023-04-25T14:08:51.282Z,4.55
2023-04-25T14:11:19.014Z,3.72
2023-04-25T14:13:45.727Z,5.15
2023-04-25T14:16:12.173Z,6.32
2023-04-25T14:18:38.573Z,5.05
2023-04-25T14:21:05.763Z,7.13
2023-04-25T14:23:32.052Z,5.10
2023-04-25T14:25:58.428Z,5.47
2023-04-25T14:28:24.734Z,5.65
2023-04-25T14:30:51.220Z,6.22
2023-04-25T14:33:17.628Z,4.68
2023-04-25T14:38:10.345Z,5.72
2023-04-25T14:40:36.811Z,5.72
2023-04-25T14:45:29.490Z,3.67
2023-04-25T14:50:22.525Z,4.53
2023-04-25T14:55:15.632Z,5.60
2023-04-25T14:57:42.136Z,5.00
2023-04-25T15:00:10.452Z,8.45
2023-04-25T15:02:37.416Z,5.10
2023-04-25T15:05:04.386Z,6.13
2023-04-25T15:07:30.841Z,5.45
2023-04-25T15:12:24.057Z,3.92
2023-04-25T15:17:17.430Z,8.88
2023-04-25T15:19:43.771Z,7.28
2023-04-25T15:22:10.447Z,5.63
2023-04-25T15:27:03.967Z,4.63
2023-04-25T15:29:30.982Z,4.90
2023-04-25T15:31:57.449Z,5.28
2023-04-25T15:39:16.582Z,6.22
2023-04-25T15:41:42.894Z,4.25
2023-04-25T15:44:10.838Z,4.80
2023-04-25T15:46:37.388Z,9.07
2023-04-25T15:51:30.696Z,6.90
2023-04-25T15:53:57.116Z,7.70
2023-04-25T15:56:24.092Z,6.28
2023-04-25T15:58:51.108Z,6.07
2023-04-25T16:01:17.624Z,5.35
2023-04-25T16:06:10.817Z,3.38
2023-04-25T16:08:37.200Z,4.97
2023-04-25T16:11:03.707Z,3.83
2023-04-25T16:13:30.216Z,5.82
2023-04-25T16:15:56.780Z,4.07
2023-04-25T16:28:09.372Z,6.13
2023-04-25T16:30:35.813Z,6.90
2023-04-25T16:33:02.172Z,6.63
2023-04-25T16:35:30.515Z,7.45
2023-04-25T16:37:56.890Z,5.22
2023-04-25T16:40:23.336Z,6.30
2023-04-25T16:42:50.620Z,5.65
2023-04-25T16:45:20.000Z,5.70
2023-04-25T16:47:46.650Z,5.40
2023-04-25T16:52:39.271Z,4.30
2023-04-25T16:55:06.449Z,6.70
2023-04-25T16:57:32.879Z,6.18
2023-04-25T16:59:59.252Z,6.43
2023-04-25T17:02:25.814Z,6.40
2023-04-25T17:07:24.213Z,6.45
2023-04-25T17:09:51.115Z,4.03
2023-04-25T17:12:19.518Z,5.85
2023-04-25T17:14:49.327Z,4.50
2023-04-25T17:17:16.532Z,7.47
2023-04-25T17:19:42.883Z,7.95
2023-04-25T17:22:09.206Z,7.18
2023-04-25T17:24:35.538Z,6.90
2023-04-25T17:27:01.899Z,5.35
2023-04-25T17:29:28.272Z,3.10
2023-04-25T17:31:56.934Z,7.80
2023-04-25T17:34:23.289Z,8.05
2023-04-25T17:36:49.979Z,6.15
2023-04-25T17:41:44.434Z,5.57
2023-04-25T17:44:10.785Z,9.52
2023-04-25T17:46:37.498Z,10.18
2023-04-25T17:49:03.866Z,8.80
2023-04-25T17:51:30.383Z,4.65
2023-04-25T17:53:56.841Z,7.07
2023-04-25T17:58:54.065Z,4.40
2023-04-25T18:01:20.884Z,4.50
2023-04-25T18:03:49.211Z,6.13
2023-04-25T18:06:16.611Z,6.97
2023-04-25T18:08:44.605Z,8.77
2023-04-25T18:11:11.799Z,4.95
2023-04-25T18:13:38.592Z,8.18
2023-04-25T18:16:05.134Z,6.45
2023-04-25T18:18:34.218Z,5.00
2023-04-25T18:21:03.405Z,5.15
2023-04-25T18:23:29.718Z,7.00
2023-04-25T18:25:56.132Z,8.77
2023-04-25T18:28:22.845Z,5.40
2023-04-25T18:33:16.753Z,5.90
2023-04-25T18:35:55.250Z,4.88
2023-04-25T18:38:35.491Z,5.13
2023-04-25T18:41:20.519Z,10.13
2023-04-25T18:43:49.687Z,7.25
2023-04-25T18:46:17.433Z,9.85
2023-04-25T18:48:43.919Z,4.75
2023-04-25T18:51:10.273Z,6.05
2023-04-25T18:53:37.394Z,4.57
2023-04-25T18:56:04.188Z,8.52
2023-04-25T19:00:56.973Z,5.25
2023-04-25T19:03:23.587Z,9.43
2023-04-25T19:05:51.278Z,8.57
2023-04-25T19:08:17.885Z,8.15
2023-04-25T19:10:44.375Z,4.45
2023-04-25T19:13:11.027Z,8.15
2023-04-25T19:15:37.997Z,9.40
2023-04-25T19:18:04.694Z,4.88
2023-04-25T19:20:32.586Z,13.23
2023-04-25T19:22:58.947Z,8.68
2023-04-25T19:25:26.206Z,6.38
2023-04-25T19:27:53.040Z,6.60
2023-04-25T19:30:19.623Z,13.15
2023-04-25T19:32:46.178Z,10.25
2023-04-25T19:35:13.383Z,6.18
2023-04-25T19:37:45.750Z,10.50
2023-04-25T19:40:15.974Z,7.97
2023-04-25T19:42:42.814Z,6.53
2023-04-25T19:45:09.421Z,11.52
2023-04-25T19:47:38.543Z,7.88
2023-04-25T19:50:11.161Z,5.95
2023-04-25T19:52:38.213Z,5.35
2023-04-25T19:55:16.667Z,7.05
2023-04-25T19:57:43.241Z,7.32
2023-04-25T20:00:12.808Z,11.70
2023-04-25T20:02:39.529Z,7.43
2023-04-25T20:10:01.599Z,5.85
2023-04-25T20:12:28.015Z,8.93
2023-04-25T20:14:54.396Z,9.02
2023-04-25T20:17:20.987Z,10.43
2023-04-25T20:19:47.515Z,8.18
2023-04-25T20:22:13.950Z,7.70
2023-04-25T20:24:40.926Z,9.77
2023-04-25T20:27:07.679Z,9.00
2023-04-25T20:32:04.804Z,7.05
2023-04-25T20:34:31.692Z,11.55
2023-04-25T20:39:24.963Z,13.13
2023-04-25T20:41:52.893Z,7.28
2023-04-25T20:44:22.649Z,6.57
2023-04-25T20:46:49.578Z,9.00
2023-04-25T20:51:42.455Z,10.43
2023-04-25T20:54:11.244Z,10.32
2023-04-25T20:56:40.509Z,7.68
2023-04-25T20:59:10.572Z,8.38
2023-04-25T21:01:37.259Z,11.13
2023-04-25T21:04:04.047Z,5.93
2023-04-25T21:08:57.702Z,7.20
2023-04-25T21:11:24.174Z,8.05
2023-04-25T21:13:51.700Z,8.90
2023-04-25T21:16:18.409Z,10.65
2023-04-25T21:18:44.869Z,7.40
2023-04-25T21:21:11.414Z,8.80
2023-04-25T21:23:37.897Z,9.85
2023-04-25T21:26:04.364Z,9.65
2023-04-25T21:28:30.813Z,9.82
2023-04-25T21:30:57.284Z,9.38
2023-04-25T21:33:23.783Z,12.07
2023-04-25T21:35:50.225Z,8.40
2023-04-25T21:38:16.605Z,9.70
2023-04-25T21:40:42.980Z,10.50
2023-04-25T21:43:09.414Z,10.70
2023-04-25T21:45:43.310Z,8.90
2023-04-25T21:48:18.071Z,8.07
2023-04-25T21:50:44.798Z,7.70
2023-04-25T21:53:11.364Z,10.25
2023-04-25T21:55:37.693Z,7.63
2023-04-25T21:58:04.128Z,10.88
2023-04-25T22:00:31.978Z,8.77
2023-04-25T22:03:00.043Z,9.73
2023-04-25T22:05:27.484Z,8.98
2023-04-25T22:07:56.336Z,10.93
2023-04-25T22:10:23.148Z,10.80
2023-04-25T22:15:19.386Z,9.82
2023-04-25T22:17:46.760Z,10.45
2023-04-25T22:20:14.283Z,7.88
2023-04-25T22:22:41.484Z,7.70
2023-04-25T22:25:08.273Z,6.72
2023-04-25T22:27:35.254Z,9.70
2023-04-25T22:30:01.686Z,6.22
2023-04-25T22:32:28.186Z,12.48
2023-04-25T22:34:54.697Z,12.45
2023-04-25T22:37:21.089Z,8.68
2023-04-25T22:39:47.521Z,10.50
2023-04-25T22:42:13.868Z,10.88
2023-04-25T22:44:40.338Z,7.65
2023-04-25T22:47:06.721Z,11.60
2023-04-25T22:49:33.545Z,7.07
2023-04-25T22:54:26.299Z,10.55
2023-04-25T22:56:52.691Z,9.20
2023-04-25T22:59:20.746Z,12.50
2023-04-25T23:01:48.323Z,9.80
2023-04-25T23:04:16.656Z,11.20
2023-04-25T23:06:45.287Z,7.90
2023-04-25T23:09:12.619Z,10.80
2023-04-25T23:11:41.694Z,7.43
2023-04-25T23:14:08.195Z,12.70
2023-04-25T23:16:34.781Z,10.85
2023-04-25T23:19:01.966Z,9.82
2023-04-25T23:21:28.709Z,10.93
2023-04-25T23:23:55.102Z,7.18
2023-04-25T23:26:22.229Z,10.45
2023-04-25T23:28:48.606Z,8.63
2023-04-25T23:31:15.085Z,8.50
2023-04-25T23:33:41.551Z,13.15
2023-04-25T23:36:08.071Z,8.93
2023-04-25T23:38:34.469Z,11.25
2023-04-25T23:41:00.975Z,8.55
2023-04-25T23:43:27.518Z,9.82
2023-04-25T23:45:55.222Z,8.05
2023-04-25T23:48:21.757Z,7.63
2023-04-25T23:50:48.139Z,12.15
2023-04-25T23:53:14.537Z,12.55
2023-04-25T23:55:40.994Z,11.90
2023-04-25T23:58:07.957Z,15.40
